Language: 


Des rapports , des résumés tant et plus, au choix de chacun....


Données Historiques de Météogheer
Journalier Rapport pour Mars 2, 2018 Unitée:  Les deux    Impériale   Métrique
Suivant Jour »
Journalier Hebdomadaire Mensuel Annuel Sur mesure
  Max: Min: Moyenne:
Température: 33.3 °F /  0.7 °C 27.3 °F /  -2.6 °C 30.7 °F /  -0.7 °C
Point de rosée: 30.2 °F /  -1.0 °C 8.6 °F /  -13.0 °C 19 °F /  -7.2 °C
Humidité: 94% 40% 68%
Vent: 18.1mph /  29.1km/h - 9.1mph /  14.6km/h
Rafales: 21.9mph /  35.2km/h - -
Vent- - East
Pression: 29.4 in /  994.1 hPa 29.2 in /  989.1 hPa -
Pluie: 0 in /  0.0 mm    
Historical Graphs
 
 
Données tabulaires pour Mars 2, 2018
Heure Température Point de rosée Pression Vent Vent Rafales Humidité Pluie Taux (Horaire) Conditions
00:01 33.3 °F /  0.7 °C 12.2 °F /  -11.0 °C 29.4in /  994.1hPa East 10.5mph /  16.9km/h 15.2mph /  24.5km/h 40% 0in /  0.0mm
00:06 33.3 °F /  0.7 °C 12.2 °F /  -11.0 °C 29.4in /  994.1hPa East 13mph /  20.9km/h 15.2mph /  24.5km/h 40% 0in /  0.0mm
00:11 33.3 °F /  0.7 °C 12.2 °F /  -11.0 °C 29.4in /  994.1hPa ENE 9.6mph /  15.4km/h 15.2mph /  24.5km/h 40% 0in /  0.0mm
00:16 33.3 °F /  0.7 °C 12.2 °F /  -11.0 °C 29.4in /  994.1hPa NE 13.2mph /  21.2km/h 13.2mph /  21.2km/h 40% 0in /  0.0mm
00:21 33.3 °F /  0.7 °C 12.2 °F /  -11.0 °C 29.4in /  994.1hPa East 16.8mph /  27.0km/h 16.8mph /  27.0km/h 40% 0in /  0.0mm
00:26 33.3 °F /  0.7 °C 12.2 °F /  -11.0 °C 29.4in /  994.1hPa East 13.2mph /  21.2km/h 16.8mph /  27.0km/h 40% 0in /  0.0mm
00:31 33.3 °F /  0.7 °C 12.2 °F /  -11.0 °C 29.3in /  993.1hPa NNE 10.7mph /  17.2km/h 17.2mph /  27.7km/h 40% 0in /  0.0mm
00:36 33.1 °F /  0.6 °C 12.2 °F /  -11.0 °C 29.3in /  993.1hPa ENE 8.7mph /  14.0km/h 17.2mph /  27.7km/h 40% 0in /  0.0mm
00:41 33.1 °F /  0.6 °C 12.2 °F /  -11.0 °C 29.3in /  993.1hPa ENE 8.1mph /  13.0km/h 15.2mph /  24.5km/h 40% 0in /  0.0mm
00:46 33.1 °F /  0.6 °C 12.2 °F /  -11.0 °C 29.3in /  993.1hPa ENE 17.7mph /  28.5km/h 17.7mph /  28.5km/h 40% 0in /  0.0mm
00:51 33.1 °F /  0.6 °C 12.2 °F /  -11.0 °C 29.3in /  993.1hPa ENE 12.3mph /  19.8km/h 17.7mph /  28.5km/h 40% 0in /  0.0mm
00:56 33.1 °F /  0.6 °C 12.2 °F /  -11.0 °C 29.3in /  993.1hPa East 15.2mph /  24.5km/h 17.2mph /  27.7km/h 40% 0in /  0.0mm
01:01 32.9 °F /  0.5 °C 12.2 °F /  -11.0 °C 29.3in /  993.1hPa East 9.8mph /  15.8km/h 15.2mph /  24.5km/h 40% 0in /  0.0mm
01:06 32.9 °F /  0.5 °C 12.2 °F /  -11.0 °C 29.3in /  993.1hPa ENE 8.7mph /  14.0km/h 15.2mph /  24.5km/h 41% 0in /  0.0mm
01:11 32.9 °F /  0.5 °C 12.2 °F /  -11.0 °C 29.3in /  993.1hPa ESE 12.5mph /  20.1km/h 15.2mph /  24.5km/h 41% 0in /  0.0mm
01:16 32.9 °F /  0.5 °C 12.2 °F /  -11.0 °C 29.3in /  992.1hPa East 9.8mph /  15.8km/h 15.2mph /  24.5km/h 41% 0in /  0.0mm
01:21 32.9 °F /  0.5 °C 12.2 °F /  -11.0 °C 29.3in /  992.1hPa East 10.5mph /  16.9km/h 17mph /  27.4km/h 41% 0in /  0.0mm
01:26 32.9 °F /  0.5 °C 12.2 °F /  -11.0 °C 29.3in /  992.1hPa East 10.3mph /  16.6km/h 17.9mph /  28.8km/h 41% 0in /  0.0mm
01:31 32.7 °F /  0.4 °C 12.2 °F /  -11.0 °C 29.3in /  993.1hPa East 14.5mph /  23.3km/h 17.9mph /  28.8km/h 41% 0in /  0.0mm
01:37 32.7 °F /  0.4 °C 12.2 °F /  -11.0 °C 29.3in /  993.1hPa East 10.7mph /  17.2km/h 14.5mph /  23.3km/h 41% 0in /  0.0mm
01:42 32.7 °F /  0.4 °C 12.2 °F /  -11.0 °C 29.3in /  993.1hPa NE 11mph /  17.7km/h 16.6mph /  26.7km/h 41% 0in /  0.0mm
01:47 32.7 °F /  0.4 °C 12.2 °F /  -11.0 °C 29.3in /  993.1hPa East 15.4mph /  24.8km/h 16.6mph /  26.7km/h 41% 0in /  0.0mm
01:52 32.7 °F /  0.4 °C 12.2 °F /  -11.0 °C 29.3in /  993.1hPa East 11.4mph /  18.3km/h 15.4mph /  24.8km/h 41% 0in /  0.0mm
01:57 32.5 °F /  0.3 °C 12.2 °F /  -11.0 °C 29.3in /  993.1hPa East 7.8mph /  12.6km/h 15.4mph /  24.8km/h 41% 0in /  0.0mm
02:02 32.5 °F /  0.3 °C 12.2 °F /  -11.0 °C 29.4in /  994.1hPa East 10.1mph /  16.3km/h 18.1mph /  29.1km/h 41% 0in /  0.0mm
02:07 32.5 °F /  0.3 °C 12.2 °F /  -11.0 °C 29.4in /  994.1hPa East 10.5mph /  16.9km/h 18.1mph /  29.1km/h 41% 0in /  0.0mm
02:12 32.5 °F /  0.3 °C 12.2 °F /  -11.0 °C 29.4in /  994.1hPa NNE 11.2mph /  18.0km/h 17.7mph /  28.5km/h 41% 0in /  0.0mm
02:17 32.5 °F /  0.3 °C 12.2 °F /  -11.0 °C 29.3in /  993.1hPa East 8.1mph /  13.0km/h 17.7mph /  28.5km/h 41% 0in /  0.0mm
02:22 32.4 °F /  0.2 °C 12.2 °F /  -11.0 °C 29.3in /  993.1hPa ENE 8.5mph /  13.7km/h 16.8mph /  27.0km/h 41% 0in /  0.0mm
02:27 32.4 °F /  0.2 °C 12.2 °F /  -11.0 °C 29.3in /  993.1hPa ENE 15.4mph /  24.8km/h 15.4mph /  24.8km/h 41% 0in /  0.0mm
02:32 32.4 °F /  0.2 °C 12.2 °F /  -11.0 °C 29.3in /  993.1hPa ENE 15.2mph /  24.5km/h 15.4mph /  24.8km/h 41% 0in /  0.0mm
02:37 32.2 °F /  0.1 °C 12.2 °F /  -11.0 °C 29.3in /  993.1hPa ENE 10.3mph /  16.6km/h 18.8mph /  30.2km/h 41% 0in /  0.0mm
02:42 32.2 °F /  0.1 °C 12.2 °F /  -11.0 °C 29.3in /  993.1hPa ENE 13.6mph /  21.9km/h 18.8mph /  30.2km/h 41% 0in /  0.0mm
02:47 32.2 °F /  0.1 °C 12.2 °F /  -11.0 °C 29.3in /  992.1hPa East 11.2mph /  18.0km/h 17.7mph /  28.5km/h 41% 0in /  0.0mm
02:52 32.2 °F /  0.1 °C 12.2 °F /  -11.0 °C 29.3in /  992.1hPa NE 8.5mph /  13.7km/h 17.7mph /  28.5km/h 41% 0in /  0.0mm
02:57 32.2 °F /  0.1 °C 12.2 °F /  -11.0 °C 29.3in /  992.1hPa East 10.5mph /  16.9km/h 16.1mph /  25.9km/h 41% 0in /  0.0mm
03:02 32.2 °F /  0.1 °C 12.2 °F /  -11.0 °C 29.3in /  992.1hPa ENE 10.7mph /  17.2km/h 19.5mph /  31.4km/h 41% 0in /  0.0mm
03:07 32 °F /  0.0 °C 10.4 °F /  -12.0 °C 29.3in /  992.1hPa ENE 15.4mph /  24.8km/h 19.5mph /  31.4km/h 41% 0in /  0.0mm
03:12 32 °F /  0.0 °C 10.4 °F /  -12.0 °C 29.3in /  992.1hPa NE 12.8mph /  20.6km/h 17.4mph /  28.0km/h 41% 0in /  0.0mm
03:17 32 °F /  0.0 °C 10.4 °F /  -12.0 °C 29.3in /  992.1hPa ENE 12.5mph /  20.1km/h 17.4mph /  28.0km/h 41% 0in /  0.0mm
03:22 31.8 °F /  -0.1 °C 10.4 °F /  -12.0 °C 29.3in /  992.1hPa ENE 8.7mph /  14.0km/h 19.2mph /  30.9km/h 41% 0in /  0.0mm
03:28 31.8 °F /  -0.1 °C 10.4 °F /  -12.0 °C 29.3in /  992.1hPa NE 9.6mph /  15.4km/h 19.2mph /  30.9km/h 41% 0in /  0.0mm
03:33 31.8 °F /  -0.1 °C 10.4 °F /  -12.0 °C 29.3in /  991.1hPa ENE 8.7mph /  14.0km/h 17mph /  27.4km/h 41% 0in /  0.0mm
03:38 31.8 °F /  -0.1 °C 10.4 °F /  -12.0 °C 29.3in /  991.1hPa ENE 10.1mph /  16.3km/h 17mph /  27.4km/h 41% 0in /  0.0mm
03:43 31.6 °F /  -0.2 °C 10.4 °F /  -12.0 °C 29.3in /  991.1hPa ENE 13.4mph /  21.6km/h 15.4mph /  24.8km/h 41% 0in /  0.0mm
03:48 31.6 °F /  -0.2 °C 10.4 °F /  -12.0 °C 29.3in /  991.1hPa East 7.8mph /  12.6km/h 15.4mph /  24.8km/h 41% 0in /  0.0mm
03:53 31.6 °F /  -0.2 °C 10.4 °F /  -12.0 °C 29.3in /  991.1hPa ENE 8.5mph /  13.7km/h 15.2mph /  24.5km/h 41% 0in /  0.0mm
03:58 31.5 °F /  -0.3 °C 8.6 °F /  -13.0 °C 29.3in /  991.1hPa ENE 10.3mph /  16.6km/h 15.2mph /  24.5km/h 41% 0in /  0.0mm
04:03 31.5 °F /  -0.3 °C 8.6 °F /  -13.0 °C 29.3in /  991.1hPa NNE 13.2mph /  21.2km/h 15.2mph /  24.5km/h 41% 0in /  0.0mm
04:08 31.5 °F /  -0.3 °C 8.6 °F /  -13.0 °C 29.3in /  991.1hPa ENE 17.4mph /  28.0km/h 19mph /  30.6km/h 41% 0in /  0.0mm
04:13 31.5 °F /  -0.3 °C 8.6 °F /  -13.0 °C 29.3in /  991.1hPa ENE 10.7mph /  17.2km/h 19mph /  30.6km/h 41% 0in /  0.0mm
04:18 31.5 °F /  -0.3 °C 8.6 °F /  -13.0 °C 29.3in /  991.1hPa East 13.2mph /  21.2km/h 18.8mph /  30.2km/h 41% 0in /  0.0mm
04:23 31.5 °F /  -0.3 °C 8.6 °F /  -13.0 °C 29.3in /  991.1hPa East 13.6mph /  21.9km/h 18.8mph /  30.2km/h 41% 0in /  0.0mm
04:28 31.3 °F /  -0.4 °C 8.6 °F /  -13.0 °C 29.3in /  991.1hPa ENE 11mph /  17.7km/h 15.4mph /  24.8km/h 41% 0in /  0.0mm
04:33 31.3 °F /  -0.4 °C 8.6 °F /  -13.0 °C 29.3in /  991.1hPa ENE 12.3mph /  19.8km/h 15.9mph /  25.6km/h 41% 0in /  0.0mm
04:38 31.3 °F /  -0.4 °C 8.6 °F /  -13.0 °C 29.3in /  991.1hPa ENE 12.8mph /  20.6km/h 15.9mph /  25.6km/h 41% 0in /  0.0mm
04:43 31.1 °F /  -0.5 °C 8.6 °F /  -13.0 °C 29.3in /  991.1hPa East 11.9mph /  19.1km/h 17.2mph /  27.7km/h 41% 0in /  0.0mm
04:48 31.1 °F /  -0.5 °C 8.6 °F /  -13.0 °C 29.3in /  991.1hPa ENE 7.8mph /  12.6km/h 17.2mph /  27.7km/h 42% 0in /  0.0mm
04:53 31.1 °F /  -0.5 °C 8.6 °F /  -13.0 °C 29.3in /  991.1hPa NNE 7.8mph /  12.6km/h 16.6mph /  26.7km/h 42% 0in /  0.0mm
04:58 31.1 °F /  -0.5 °C 8.6 °F /  -13.0 °C 29.3in /  991.1hPa ENE 17.7mph /  28.5km/h 20.6mph /  33.1km/h 42% 0in /  0.0mm
05:03 31.1 °F /  -0.5 °C 8.6 °F /  -13.0 °C 29.3in /  991.1hPa ENE 13.9mph /  22.4km/h 20.6mph /  33.1km/h 42% 0in /  0.0mm
05:08 31.1 °F /  -0.5 °C 8.6 °F /  -13.0 °C 29.3in /  991.1hPa NE 10.7mph /  17.2km/h 17.4mph /  28.0km/h 42% 0in /  0.0mm
05:13 31.1 °F /  -0.5 °C 8.6 °F /  -13.0 °C 29.3in /  991.1hPa ENE 16.8mph /  27.0km/h 17.4mph /  28.0km/h 42% 0in /  0.0mm
05:18 31.1 °F /  -0.5 °C 8.6 °F /  -13.0 °C 29.2in /  990.1hPa East 17.2mph /  27.7km/h 18.1mph /  29.1km/h 42% 0in /  0.0mm
05:24 31.1 °F /  -0.5 °C 8.6 °F /  -13.0 °C 29.2in /  990.1hPa ENE 15.4mph /  24.8km/h 19.7mph /  31.7km/h 42% 0in /  0.0mm
05:29 30.9 °F /  -0.6 °C 8.6 °F /  -13.0 °C 29.2in /  990.1hPa NE 15.4mph /  24.8km/h 18.6mph /  29.9km/h 42% 0in /  0.0mm
05:34 30.9 °F /  -0.6 °C 8.6 °F /  -13.0 °C 29.2in /  990.1hPa ENE 11mph /  17.7km/h 18.6mph /  29.9km/h 42% 0in /  0.0mm
05:39 30.9 °F /  -0.6 °C 8.6 °F /  -13.0 °C 29.2in /  990.1hPa East 15.4mph /  24.8km/h 18.1mph /  29.1km/h 42% 0in /  0.0mm
05:44 30.9 °F /  -0.6 °C 8.6 °F /  -13.0 °C 29.2in /  990.1hPa ENE 15.4mph /  24.8km/h 18.1mph /  29.1km/h 42% 0in /  0.0mm
05:49 30.7 °F /  -0.7 °C 8.6 °F /  -13.0 °C 29.2in /  990.1hPa East 17.2mph /  27.7km/h 17.2mph /  27.7km/h 42% 0in /  0.0mm
05:54 30.7 °F /  -0.7 °C 10.4 °F /  -12.0 °C 29.2in /  990.1hPa East 10.1mph /  16.3km/h 17.2mph /  27.7km/h 43% 0in /  0.0mm
05:59 30.6 °F /  -0.8 °C 8.6 °F /  -13.0 °C 29.2in /  989.1hPa East 12.5mph /  20.1km/h 14.8mph /  23.8km/h 42% 0in /  0.0mm
06:04 30.4 °F /  -0.9 °C 8.6 °F /  -13.0 °C 29.2in /  989.1hPa NE 12.5mph /  20.1km/h 15.2mph /  24.5km/h 42% 0in /  0.0mm
06:09 30.2 °F /  -1.0 °C 8.6 °F /  -13.0 °C 29.2in /  989.1hPa ENE 12.1mph /  19.5km/h 17mph /  27.4km/h 43% 0in /  0.0mm
06:14 30.2 °F /  -1.0 °C 8.6 °F /  -13.0 °C 29.2in /  990.1hPa ENE 14.3mph /  23.0km/h 20.8mph /  33.5km/h 43% 0in /  0.0mm
06:19 30 °F /  -1.1 °C 8.6 °F /  -13.0 °C 29.2in /  990.1hPa ENE 10.7mph /  17.2km/h 20.8mph /  33.5km/h 43% 0in /  0.0mm
06:24 29.8 °F /  -1.2 °C 8.6 °F /  -13.0 °C 29.2in /  990.1hPa East 10.1mph /  16.3km/h 17.4mph /  28.0km/h 43% 0in /  0.0mm
06:29 29.8 °F /  -1.2 °C 10.4 °F /  -12.0 °C 29.2in /  990.1hPa ENE 15.2mph /  24.5km/h 19.2mph /  30.9km/h 44% 0in /  0.0mm
06:34 29.8 °F /  -1.2 °C 10.4 °F /  -12.0 °C 29.2in /  990.1hPa ENE 13mph /  20.9km/h 19.2mph /  30.9km/h 44% 0in /  0.0mm
06:39 29.7 °F /  -1.3 °C 10.4 °F /  -12.0 °C 29.2in /  990.1hPa ENE 15.7mph /  25.3km/h 16.3mph /  26.2km/h 44% 0in /  0.0mm
06:44 29.7 °F /  -1.3 °C 10.4 °F /  -12.0 °C 29.2in /  990.1hPa East 14.3mph /  23.0km/h 17mph /  27.4km/h 44% 0in /  0.0mm
06:49 29.7 °F /  -1.3 °C 10.4 °F /  -12.0 °C 29.2in /  990.1hPa ENE 12.1mph /  19.5km/h 17.7mph /  28.5km/h 45% 0in /  0.0mm
06:54 29.5 °F /  -1.4 °C 10.4 °F /  -12.0 °C 29.2in /  990.1hPa ENE 11.9mph /  19.1km/h 17.7mph /  28.5km/h 45% 0in /  0.0mm
06:59 29.5 °F /  -1.4 °C 10.4 °F /  -12.0 °C 29.2in /  989.1hPa ENE 17mph /  27.4km/h 19.2mph /  30.9km/h 45% 0in /  0.0mm
07:04 29.5 °F /  -1.4 °C 10.4 °F /  -12.0 °C 29.2in /  989.1hPa ENE 10.7mph /  17.2km/h 19.2mph /  30.9km/h 46% 0in /  0.0mm
07:09 29.5 °F /  -1.4 °C 10.4 °F /  -12.0 °C 29.2in /  989.1hPa East 10.5mph /  16.9km/h 17.4mph /  28.0km/h 46% 0in /  0.0mm
07:14 29.3 °F /  -1.5 °C 10.4 °F /  -12.0 °C 29.2in /  989.1hPa NNE 13.6mph /  21.9km/h 17.2mph /  27.7km/h 47% 0in /  0.0mm
07:19 29.3 °F /  -1.5 °C 10.4 °F /  -12.0 °C 29.2in /  989.1hPa East 11mph /  17.7km/h 18.8mph /  30.2km/h 48% 0in /  0.0mm
07:24 29.3 °F /  -1.5 °C 12.2 °F /  -11.0 °C 29.2in /  989.1hPa ENE 8.7mph /  14.0km/h 21.9mph /  35.2km/h 49% 0in /  0.0mm
07:30 29.3 °F /  -1.5 °C 12.2 °F /  -11.0 °C 29.2in /  989.1hPa ENE 10.3mph /  16.6km/h 21.9mph /  35.2km/h 49% 0in /  0.0mm
07:35 29.1 °F /  -1.6 °C 12.2 °F /  -11.0 °C 29.2in /  989.1hPa ENE 14.8mph /  23.8km/h 18.8mph /  30.2km/h 50% 0in /  0.0mm
07:40 29.1 °F /  -1.6 °C 12.2 °F /  -11.0 °C 29.2in /  989.1hPa ENE 10.5mph /  16.9km/h 18.8mph /  30.2km/h 50% 0in /  0.0mm
07:45 29.1 °F /  -1.6 °C 12.2 °F /  -11.0 °C 29.2in /  989.1hPa NE 11.2mph /  18.0km/h 20.1mph /  32.3km/h 49% 0in /  0.0mm
07:50 29.1 °F /  -1.6 °C 12.2 °F /  -11.0 °C 29.2in /  989.1hPa East 14.8mph /  23.8km/h 20.1mph /  32.3km/h 49% 0in /  0.0mm
07:55 28.9 °F /  -1.7 °C 12.2 °F /  -11.0 °C 29.2in /  989.1hPa ENE 10.7mph /  17.2km/h 18.1mph /  29.1km/h 49% 0in /  0.0mm
08:00 29.1 °F /  -1.6 °C 10.4 °F /  -12.0 °C 29.2in /  990.1hPa East 14.3mph /  23.0km/h 17.7mph /  28.5km/h 48% 0in /  0.0mm
08:05 29.1 °F /  -1.6 °C 10.4 °F /  -12.0 °C 29.2in /  990.1hPa ENE 14.1mph /  22.7km/h 17.4mph /  28.0km/h 48% 0in /  0.0mm
08:10 29.1 °F /  -1.6 °C 10.4 °F /  -12.0 °C 29.2in /  990.1hPa East 15.4mph /  24.8km/h 17.4mph /  28.0km/h 48% 0in /  0.0mm
08:15 29.3 °F /  -1.5 °C 10.4 °F /  -12.0 °C 29.2in /  990.1hPa NE 12.5mph /  20.1km/h 17.7mph /  28.5km/h 47% 0in /  0.0mm
08:20 29.3 °F /  -1.5 °C 10.4 °F /  -12.0 °C 29.2in /  990.1hPa NNE 8.5mph /  13.7km/h 17.7mph /  28.5km/h 47% 0in /  0.0mm
08:25 29.5 °F /  -1.4 °C 10.4 °F /  -12.0 °C 29.2in /  990.1hPa NE 10.5mph /  16.9km/h 15.4mph /  24.8km/h 47% 0in /  0.0mm
08:30 29.5 °F /  -1.4 °C 10.4 °F /  -12.0 °C 29.3in /  991.1hPa ENE 10.5mph /  16.9km/h 15.2mph /  24.5km/h 46% 0in /  0.0mm
08:35 29.5 °F /  -1.4 °C 10.4 °F /  -12.0 °C 29.3in /  991.1hPa ENE 12.8mph /  20.6km/h 18.6mph /  29.9km/h 46% 0in /  0.0mm
08:41 29.5 °F /  -1.4 °C 10.4 °F /  -12.0 °C 29.3in /  991.1hPa ENE 7.6mph /  12.2km/h 18.6mph /  29.9km/h 46% 0in /  0.0mm
08:46 29.5 °F /  -1.4 °C 12.2 °F /  -11.0 °C 29.3in /  991.1hPa East 11.4mph /  18.3km/h 14.3mph /  23.0km/h 48% 0in /  0.0mm
08:51 29.5 °F /  -1.4 °C 12.2 °F /  -11.0 °C 29.3in /  991.1hPa ENE 15.2mph /  24.5km/h 15.2mph /  24.5km/h 48% 0in /  0.0mm
08:56 29.3 °F /  -1.5 °C 10.4 °F /  -12.0 °C 29.3in /  991.1hPa ENE 15.4mph /  24.8km/h 17.2mph /  27.7km/h 48% 0in /  0.0mm
09:01 29.3 °F /  -1.5 °C 12.2 °F /  -11.0 °C 29.3in /  991.1hPa East 10.7mph /  17.2km/h 19.9mph /  32.0km/h 50% 0in /  0.0mm
09:06 29.1 °F /  -1.6 °C 12.2 °F /  -11.0 °C 29.3in /  991.1hPa ENE 10.5mph /  16.9km/h 19.9mph /  32.0km/h 51% 0in /  0.0mm
09:11 29.1 °F /  -1.6 °C 12.2 °F /  -11.0 °C 29.3in /  991.1hPa ENE 11.2mph /  18.0km/h 16.8mph /  27.0km/h 51% 0in /  0.0mm
09:16 29.1 °F /  -1.6 °C 12.2 °F /  -11.0 °C 29.3in /  991.1hPa ENE 12.1mph /  19.5km/h 15.7mph /  25.3km/h 51% 0in /  0.0mm
09:21 29.1 °F /  -1.6 °C 12.2 °F /  -11.0 °C 29.3in /  991.1hPa ENE 12.8mph /  20.6km/h 15.7mph /  25.3km/h 51% 0in /  0.0mm
09:26 28.9 °F /  -1.7 °C 12.2 °F /  -11.0 °C 29.3in /  991.1hPa East 7.8mph /  12.6km/h 15.2mph /  24.5km/h 52% 0in /  0.0mm
09:31 28.9 °F /  -1.7 °C 14 °F /  -10.0 °C 29.3in /  991.1hPa ENE 16.1mph /  25.9km/h 17.2mph /  27.7km/h 53% 0in /  0.0mm
09:36 28.9 °F /  -1.7 °C 14 °F /  -10.0 °C 29.3in /  991.1hPa East 10.3mph /  16.6km/h 17.2mph /  27.7km/h 54% 0in /  0.0mm
09:41 28.9 °F /  -1.7 °C 14 °F /  -10.0 °C 29.3in /  991.1hPa NE 10.5mph /  16.9km/h 16.6mph /  26.7km/h 54% 0in /  0.0mm
09:46 28.9 °F /  -1.7 °C 14 °F /  -10.0 °C 29.2in /  990.1hPa East 18.1mph /  29.1km/h 18.1mph /  29.1km/h 56% 0in /  0.0mm
09:51 28.6 °F /  -1.9 °C 15.8 °F /  -9.0 °C 29.2in /  990.1hPa East 10.1mph /  16.3km/h 18.1mph /  29.1km/h 59% 0in /  0.0mm
09:56 28.8 °F /  -1.8 °C 15.8 °F /  -9.0 °C 29.2in /  990.1hPa ENE 7.6mph /  12.2km/h 18.1mph /  29.1km/h 60% 0in /  0.0mm
10:01 28.8 °F /  -1.8 °C 15.8 °F /  -9.0 °C 29.3in /  991.1hPa ENE 11.4mph /  18.3km/h 16.6mph /  26.7km/h 61% 0in /  0.0mm
10:06 28.6 °F /  -1.9 °C 17.6 °F /  -8.0 °C 29.3in /  991.1hPa ESE 12.8mph /  20.6km/h 17.2mph /  27.7km/h 64% 0in /  0.0mm
10:11 28 °F /  -2.2 °C 19.4 °F /  -7.0 °C 29.3in /  991.1hPa East 12.3mph /  19.8km/h 17.7mph /  28.5km/h 70% 0in /  0.0mm
10:16 27.9 °F /  -2.3 °C 19.4 °F /  -7.0 °C 29.3in /  991.1hPa East 12.3mph /  19.8km/h 17.7mph /  28.5km/h 72% 0in /  0.0mm
10:21 27.7 °F /  -2.4 °C 19.4 °F /  -7.0 °C 29.3in /  991.1hPa East 9.6mph /  15.4km/h 15.9mph /  25.6km/h 75% 0in /  0.0mm
10:26 27.5 °F /  -2.5 °C 19.4 °F /  -7.0 °C 29.3in /  991.1hPa East 13.2mph /  21.2km/h 14.1mph /  22.7km/h 78% 0in /  0.0mm
10:31 27.3 °F /  -2.6 °C 21.2 °F /  -6.0 °C 29.3in /  991.1hPa East 6.5mph /  10.5km/h 15.9mph /  25.6km/h 79% 0in /  0.0mm
10:36 27.3 °F /  -2.6 °C 21.2 °F /  -6.0 °C 29.3in /  991.1hPa East 10.5mph /  16.9km/h 15.9mph /  25.6km/h 79% 0in /  0.0mm
10:41 27.5 °F /  -2.5 °C 21.2 °F /  -6.0 °C 29.3in /  991.1hPa East 7.4mph /  11.9km/h 15.4mph /  24.8km/h 81% 0in /  0.0mm
10:47 27.7 °F /  -2.4 °C 21.2 °F /  -6.0 °C 29.3in /  991.1hPa ENE 8.5mph /  13.7km/h 12.8mph /  20.6km/h 82% 0in /  0.0mm
10:52 27.7 °F /  -2.4 °C 21.2 °F /  -6.0 °C 29.3in /  991.1hPa East 7.8mph /  12.6km/h 13mph /  20.9km/h 83% 0in /  0.0mm
10:57 27.9 °F /  -2.3 °C 23 °F /  -5.0 °C 29.3in /  991.1hPa East 10.1mph /  16.3km/h 13.2mph /  21.2km/h 84% 0in /  0.0mm
11:02 27.9 °F /  -2.3 °C 21.2 °F /  -6.0 °C 29.3in /  991.1hPa East 8.1mph /  13.0km/h 15.2mph /  24.5km/h 83% 0in /  0.0mm
11:07 27.9 °F /  -2.3 °C 21.2 °F /  -6.0 °C 29.3in /  991.1hPa East 10.3mph /  16.6km/h 15.2mph /  24.5km/h 82% 0in /  0.0mm
11:12 27.9 °F /  -2.3 °C 21.2 °F /  -6.0 °C 29.3in /  991.1hPa ENE 14.3mph /  23.0km/h 15.4mph /  24.8km/h 82% 0in /  0.0mm
11:17 27.9 °F /  -2.3 °C 21.2 °F /  -6.0 °C 29.3in /  991.1hPa ESE 12.3mph /  19.8km/h 16.1mph /  25.9km/h 81% 0in /  0.0mm
11:22 28 °F /  -2.2 °C 23 °F /  -5.0 °C 29.3in /  991.1hPa ENE 13.6mph /  21.9km/h 16.1mph /  25.9km/h 82% 0in /  0.0mm
11:27 28 °F /  -2.2 °C 21.2 °F /  -6.0 °C 29.3in /  991.1hPa East 15.9mph /  25.6km/h 15.9mph /  25.6km/h 81% 0in /  0.0mm
11:32 27.9 °F /  -2.3 °C 21.2 °F /  -6.0 °C 29.3in /  991.1hPa East 8.5mph /  13.7km/h 16.1mph /  25.9km/h 80% 0in /  0.0mm
11:38 28.2 °F /  -2.1 °C 21.2 °F /  -6.0 °C 29.3in /  991.1hPa East 8.9mph /  14.3km/h 15.9mph /  25.6km/h 80% 0in /  0.0mm
11:44 28.4 °F /  -2.0 °C 21.2 °F /  -6.0 °C 29.3in /  991.1hPa NE 10.5mph /  16.9km/h 12.8mph /  20.6km/h 80% 0in /  0.0mm
11:49 28.6 °F /  -1.9 °C 21.2 °F /  -6.0 °C 29.3in /  991.1hPa East 7.6mph /  12.2km/h 12.8mph /  20.6km/h 79% 0in /  0.0mm
11:54 28.6 °F /  -1.9 °C 21.2 °F /  -6.0 °C 29.3in /  991.1hPa ENE 8.7mph /  14.0km/h 13.4mph /  21.6km/h 78% 0in /  0.0mm
11:59 28.6 °F /  -1.9 °C 21.2 °F /  -6.0 °C 29.3in /  992.1hPa ENE 8.5mph /  13.7km/h 15.2mph /  24.5km/h 76% 0in /  0.0mm
12:04 28.8 °F /  -1.8 °C 21.2 °F /  -6.0 °C 29.3in /  992.1hPa East 5.6mph /  9.0km/h 15.2mph /  24.5km/h 76% 0in /  0.0mm
12:09 28.9 °F /  -1.7 °C 21.2 °F /  -6.0 °C 29.3in /  992.1hPa East 5.8mph /  9.3km/h 12.3mph /  19.8km/h 76% 0in /  0.0mm
12:14 29.1 °F /  -1.6 °C 21.2 °F /  -6.0 °C 29.3in /  991.1hPa ESE 9.2mph /  14.8km/h 16.1mph /  25.9km/h 75% 0in /  0.0mm
12:19 29.1 °F /  -1.6 °C 21.2 °F /  -6.0 °C 29.3in /  991.1hPa East 8.1mph /  13.0km/h 16.1mph /  25.9km/h 74% 0in /  0.0mm
12:25 29.1 °F /  -1.6 °C 21.2 °F /  -6.0 °C 29.3in /  991.1hPa East 6.5mph /  10.5km/h 14.5mph /  23.3km/h 73% 0in /  0.0mm
12:30 29.1 °F /  -1.6 °C 21.2 °F /  -6.0 °C 29.3in /  991.1hPa East 6mph /  9.7km/h 14.5mph /  23.3km/h 72% 0in /  0.0mm
12:35 29.3 °F /  -1.5 °C 21.2 °F /  -6.0 °C 29.3in /  991.1hPa East 12.5mph /  20.1km/h 14.5mph /  23.3km/h 72% 0in /  0.0mm
12:40 29.5 °F /  -1.4 °C 21.2 °F /  -6.0 °C 29.3in /  991.1hPa East 10.7mph /  17.2km/h 14.5mph /  23.3km/h 71% 0in /  0.0mm
12:45 29.5 °F /  -1.4 °C 21.2 °F /  -6.0 °C 29.3in /  992.1hPa East 8.7mph /  14.0km/h 14.5mph /  23.3km/h 71% 0in /  0.0mm
12:50 29.7 °F /  -1.3 °C 21.2 °F /  -6.0 °C 29.3in /  992.1hPa East 5.4mph /  8.7km/h 14.8mph /  23.8km/h 71% 0in /  0.0mm
12:55 29.7 °F /  -1.3 °C 19.4 °F /  -7.0 °C 29.3in /  992.1hPa East 10.1mph /  16.3km/h 14.8mph /  23.8km/h 70% 0in /  0.0mm
13:00 29.7 °F /  -1.3 °C 19.4 °F /  -7.0 °C 29.3in /  991.1hPa NE 9.6mph /  15.4km/h 11.4mph /  18.3km/h 70% 0in /  0.0mm
13:06 29.7 °F /  -1.3 °C 19.4 °F /  -7.0 °C 29.3in /  991.1hPa East 6.3mph /  10.1km/h 15.2mph /  24.5km/h 70% 0in /  0.0mm
13:11 29.8 °F /  -1.2 °C 21.2 °F /  -6.0 °C 29.3in /  991.1hPa ENE 13.2mph /  21.2km/h 15.2mph /  24.5km/h 71% 0in /  0.0mm
13:16 29.8 °F /  -1.2 °C 21.2 °F /  -6.0 °C 29.3in /  991.1hPa East 9.8mph /  15.8km/h 13.2mph /  21.2km/h 71% 0in /  0.0mm
13:21 30 °F /  -1.1 °C 21.2 °F /  -6.0 °C 29.3in /  991.1hPa East 8.1mph /  13.0km/h 13mph /  20.9km/h 71% 0in /  0.0mm
13:26 30 °F /  -1.1 °C 21.2 °F /  -6.0 °C 29.3in /  991.1hPa East 8.7mph /  14.0km/h 13.6mph /  21.9km/h 71% 0in /  0.0mm
13:31 30.2 °F /  -1.0 °C 21.2 °F /  -6.0 °C 29.3in /  992.1hPa East 7.8mph /  12.6km/h 13.6mph /  21.9km/h 71% 0in /  0.0mm
13:36 30.4 °F /  -0.9 °C 21.2 °F /  -6.0 °C 29.3in /  992.1hPa ENE 9.4mph /  15.1km/h 13.4mph /  21.6km/h 70% 0in /  0.0mm
13:42 30.6 °F /  -0.8 °C 19.4 °F /  -7.0 °C 29.3in /  992.1hPa ESE 8.7mph /  14.0km/h 11mph /  17.7km/h 69% 0in /  0.0mm
13:47 30.7 °F /  -0.7 °C 21.2 °F /  -6.0 °C 29.3in /  992.1hPa ESE 10.1mph /  16.3km/h 12.5mph /  20.1km/h 70% 0in /  0.0mm
13:52 30.7 °F /  -0.7 °C 21.2 °F /  -6.0 °C 29.3in /  992.1hPa NE 7.8mph /  12.6km/h 12.5mph /  20.1km/h 70% 0in /  0.0mm
13:57 30.9 °F /  -0.6 °C 21.2 °F /  -6.0 °C 29.3in /  992.1hPa East 6.5mph /  10.5km/h 11.2mph /  18.0km/h 70% 0in /  0.0mm
14:02 30.9 °F /  -0.6 °C 21.2 °F /  -6.0 °C 29.3in /  992.1hPa East 6.5mph /  10.5km/h 12.8mph /  20.6km/h 69% 0in /  0.0mm
14:07 31.1 °F /  -0.5 °C 21.2 °F /  -6.0 °C 29.3in /  992.1hPa ESE 10.3mph /  16.6km/h 12.8mph /  20.6km/h 69% 0in /  0.0mm
14:12 31.1 °F /  -0.5 °C 21.2 °F /  -6.0 °C 29.3in /  992.1hPa ENE 10.5mph /  16.9km/h 12.3mph /  19.8km/h 69% 0in /  0.0mm
14:17 31.1 °F /  -0.5 °C 21.2 °F /  -6.0 °C 29.3in /  992.1hPa ENE 10.5mph /  16.9km/h 12.3mph /  19.8km/h 69% 0in /  0.0mm
14:22 31.1 °F /  -0.5 °C 21.2 °F /  -6.0 °C 29.3in /  992.1hPa East 7.6mph /  12.2km/h 12.3mph /  19.8km/h 70% 0in /  0.0mm
14:27 31.1 °F /  -0.5 °C 21.2 °F /  -6.0 °C 29.3in /  992.1hPa ESE 11mph /  17.7km/h 12.3mph /  19.8km/h 70% 0in /  0.0mm
14:32 31.1 °F /  -0.5 °C 21.2 °F /  -6.0 °C 29.3in /  992.1hPa SE 9.8mph /  15.8km/h 16.8mph /  27.0km/h 72% 0in /  0.0mm
14:38 30.9 °F /  -0.6 °C 21.2 °F /  -6.0 °C 29.3in /  992.1hPa East 10.1mph /  16.3km/h 17mph /  27.4km/h 73% 0in /  0.0mm
14:43 30.9 °F /  -0.6 °C 23 °F /  -5.0 °C 29.3in /  992.1hPa ESE 14.5mph /  23.3km/h 17mph /  27.4km/h 74% 0in /  0.0mm
14:48 30.9 °F /  -0.6 °C 23 °F /  -5.0 °C 29.3in /  992.1hPa East 8.5mph /  13.7km/h 14.5mph /  23.3km/h 74% 0in /  0.0mm
14:53 31.1 °F /  -0.5 °C 23 °F /  -5.0 °C 29.3in /  992.1hPa ESE 5.6mph /  9.0km/h 14.5mph /  23.3km/h 75% 0in /  0.0mm
14:58 31.1 °F /  -0.5 °C 23 °F /  -5.0 °C 29.3in /  992.1hPa ESE 5.8mph /  9.3km/h 12.3mph /  19.8km/h 75% 0in /  0.0mm
15:03 31.1 °F /  -0.5 °C 23 °F /  -5.0 °C 29.3in /  992.1hPa ENE 5.8mph /  9.3km/h 13.2mph /  21.2km/h 76% 0in /  0.0mm
15:08 31.1 °F /  -0.5 °C 23 °F /  -5.0 °C 29.3in /  992.1hPa East 11mph /  17.7km/h 13.2mph /  21.2km/h 76% 0in /  0.0mm
15:13 31.1 °F /  -0.5 °C 23 °F /  -5.0 °C 29.3in /  992.1hPa East 10.5mph /  16.9km/h 11mph /  17.7km/h 77% 0in /  0.0mm
15:18 31.1 °F /  -0.5 °C 23 °F /  -5.0 °C 29.3in /  992.1hPa East 8.1mph /  13.0km/h 11mph /  17.7km/h 78% 0in /  0.0mm
15:23 31.1 °F /  -0.5 °C 23 °F /  -5.0 °C 29.3in /  992.1hPa ESE 7.6mph /  12.2km/h 11.9mph /  19.1km/h 79% 0in /  0.0mm
15:28 31.1 °F /  -0.5 °C 23 °F /  -5.0 °C 29.3in /  992.1hPa East 8.1mph /  13.0km/h 12.3mph /  19.8km/h 79% 0in /  0.0mm
15:33 31.1 °F /  -0.5 °C 23 °F /  -5.0 °C 29.3in /  992.1hPa East 4.9mph /  7.9km/h 12.3mph /  19.8km/h 79% 0in /  0.0mm
15:38 30.9 °F /  -0.6 °C 24.8 °F /  -4.0 °C 29.3in /  992.1hPa ESE 10.7mph /  17.2km/h 10.7mph /  17.2km/h 80% 0in /  0.0mm
15:43 30.9 °F /  -0.6 °C 24.8 °F /  -4.0 °C 29.3in /  992.1hPa ESE 12.3mph /  19.8km/h 12.3mph /  19.8km/h 80% 0in /  0.0mm
15:48 30.7 °F /  -0.7 °C 24.8 °F /  -4.0 °C 29.3in /  993.1hPa SSE 9.8mph /  15.8km/h 12.8mph /  20.6km/h 81% 0in /  0.0mm
15:53 30.7 °F /  -0.7 °C 24.8 °F /  -4.0 °C 29.3in /  993.1hPa SE 9.4mph /  15.1km/h 14.5mph /  23.3km/h 82% 0in /  0.0mm
15:58 30.7 °F /  -0.7 °C 24.8 °F /  -4.0 °C 29.3in /  993.1hPa East 8.7mph /  14.0km/h 14.5mph /  23.3km/h 83% 0in /  0.0mm
16:03 30.6 °F /  -0.8 °C 24.8 °F /  -4.0 °C 29.3in /  992.1hPa East 7.8mph /  12.6km/h 11mph /  17.7km/h 84% 0in /  0.0mm
16:08 30.6 °F /  -0.8 °C 24.8 °F /  -4.0 °C 29.3in /  992.1hPa East 5.8mph /  9.3km/h 11mph /  17.7km/h 86% 0in /  0.0mm
16:13 30.6 °F /  -0.8 °C 24.8 °F /  -4.0 °C 29.3in /  992.1hPa ENE 5.8mph /  9.3km/h 13.4mph /  21.6km/h 86% 0in /  0.0mm
16:18 30.6 °F /  -0.8 °C 26.6 °F /  -3.0 °C 29.3in /  992.1hPa ESE 6.9mph /  11.1km/h 13.4mph /  21.6km/h 87% 0in /  0.0mm
16:23 30.6 °F /  -0.8 °C 26.6 °F /  -3.0 °C 29.3in /  992.1hPa ENE 5.4mph /  8.7km/h 11mph /  17.7km/h 87% 0in /  0.0mm
16:28 30.6 °F /  -0.8 °C 26.6 °F /  -3.0 °C 29.3in /  992.1hPa NE 7.2mph /  11.6km/h 9.2mph /  14.8km/h 88% 0in /  0.0mm
16:33 30.6 °F /  -0.8 °C 26.6 °F /  -3.0 °C 29.3in /  992.1hPa East 7.4mph /  11.9km/h 10.5mph /  16.9km/h 89% 0in /  0.0mm
16:38 30.4 °F /  -0.9 °C 26.6 °F /  -3.0 °C 29.3in /  992.1hPa ESE 4.9mph /  7.9km/h 10.5mph /  16.9km/h 89% 0in /  0.0mm
16:43 30.6 °F /  -0.8 °C 26.6 °F /  -3.0 °C 29.3in /  992.1hPa East 8.7mph /  14.0km/h 10.3mph /  16.6km/h 89% 0in /  0.0mm
16:48 30.6 °F /  -0.8 °C 26.6 °F /  -3.0 °C 29.3in /  992.1hPa East 8.7mph /  14.0km/h 10.1mph /  16.3km/h 90% 0in /  0.0mm
16:53 30.6 °F /  -0.8 °C 26.6 °F /  -3.0 °C 29.3in /  992.1hPa East 4.9mph /  7.9km/h 10.1mph /  16.3km/h 90% 0in /  0.0mm
16:59 30.6 °F /  -0.8 °C 26.6 °F /  -3.0 °C 29.3in /  993.1hPa ESE 8.7mph /  14.0km/h 12.3mph /  19.8km/h 90% 0in /  0.0mm
17:04 30.6 °F /  -0.8 °C 26.6 °F /  -3.0 °C 29.3in /  993.1hPa East 5.4mph /  8.7km/h 12.3mph /  19.8km/h 90% 0in /  0.0mm
17:09 30.6 °F /  -0.8 °C 26.6 °F /  -3.0 °C 29.3in /  993.1hPa East 8.1mph /  13.0km/h 9.8mph /  15.8km/h 90% 0in /  0.0mm
17:14 30.6 °F /  -0.8 °C 26.6 °F /  -3.0 °C 29.3in /  992.1hPa ENE 8.1mph /  13.0km/h 9.6mph /  15.4km/h 90% 0in /  0.0mm
17:19 30.7 °F /  -0.7 °C 26.6 °F /  -3.0 °C 29.3in /  992.1hPa East 4.5mph /  7.2km/h 9.6mph /  15.4km/h 90% 0in /  0.0mm
17:27 30.7 °F /  -0.7 °C 26.6 °F /  -3.0 °C 29.3in /  992.1hPa ENE 8.7mph /  14.0km/h 8.7mph /  14.0km/h 91% 0in /  0.0mm
17:34 30.7 °F /  -0.7 °C 26.6 °F /  -3.0 °C 29.3in /  992.1hPa East 6.5mph /  10.5km/h 8.7mph /  14.0km/h 91% 0in /  0.0mm
17:40 30.7 °F /  -0.7 °C 26.6 °F /  -3.0 °C 29.3in /  992.1hPa East 7.4mph /  11.9km/h 9.2mph /  14.8km/h 91% 0in /  0.0mm
17:45 30.6 °F /  -0.8 °C 26.6 °F /  -3.0 °C 29.3in /  992.1hPa East 8.1mph /  13.0km/h 10.1mph /  16.3km/h 91% 0in /  0.0mm
17:50 30.6 °F /  -0.8 °C 26.6 °F /  -3.0 °C 29.3in /  992.1hPa East 5.4mph /  8.7km/h 10.3mph /  16.6km/h 91% 0in /  0.0mm
17:55 30.6 °F /  -0.8 °C 26.6 °F /  -3.0 °C 29.3in /  992.1hPa ENE 4.9mph /  7.9km/h 10.3mph /  16.6km/h 91% 0in /  0.0mm
18:01 30.6 °F /  -0.8 °C 26.6 °F /  -3.0 °C 29.3in /  993.1hPa ESE 5.8mph /  9.3km/h 8.7mph /  14.0km/h 91% 0in /  0.0mm
18:06 30.4 °F /  -0.9 °C 26.6 °F /  -3.0 °C 29.3in /  993.1hPa East 3.6mph /  5.8km/h 7.8mph /  12.6km/h 91% 0in /  0.0mm
18:11 30.4 °F /  -0.9 °C 26.6 °F /  -3.0 °C 29.3in /  993.1hPa East 4.9mph /  7.9km/h 7.8mph /  12.6km/h 91% 0in /  0.0mm
18:16 30.4 °F /  -0.9 °C 26.6 °F /  -3.0 °C 29.3in /  993.1hPa East 5.8mph /  9.3km/h 10.7mph /  17.2km/h 91% 0in /  0.0mm
18:21 30.4 °F /  -0.9 °C 26.6 °F /  -3.0 °C 29.3in /  993.1hPa ESE 5.6mph /  9.0km/h 10.7mph /  17.2km/h 91% 0in /  0.0mm
18:26 30.4 °F /  -0.9 °C 26.6 °F /  -3.0 °C 29.3in /  993.1hPa East 5.6mph /  9.0km/h 10.1mph /  16.3km/h 91% 0in /  0.0mm
18:31 30.4 °F /  -0.9 °C 26.6 °F /  -3.0 °C 29.3in /  993.1hPa East 6mph /  9.7km/h 8.7mph /  14.0km/h 91% 0in /  0.0mm
18:36 30.4 °F /  -0.9 °C 26.6 °F /  -3.0 °C 29.3in /  993.1hPa East 6.3mph /  10.1km/h 8.7mph /  14.0km/h 91% 0in /  0.0mm
18:41 30.4 °F /  -0.9 °C 26.6 °F /  -3.0 °C 29.3in /  993.1hPa East 5.4mph /  8.7km/h 9.6mph /  15.4km/h 91% 0in /  0.0mm
18:46 30.4 °F /  -0.9 °C 26.6 °F /  -3.0 °C 29.3in /  993.1hPa East 4.9mph /  7.9km/h 9.8mph /  15.8km/h 91% 0in /  0.0mm
18:51 30.4 °F /  -0.9 °C 26.6 °F /  -3.0 °C 29.3in /  993.1hPa East 6.5mph /  10.5km/h 9.8mph /  15.8km/h 91% 0in /  0.0mm
18:56 30.6 °F /  -0.8 °C 26.6 °F /  -3.0 °C 29.3in /  993.1hPa East 7.4mph /  11.9km/h 8.7mph /  14.0km/h 91% 0in /  0.0mm
19:01 30.6 °F /  -0.8 °C 26.6 °F /  -3.0 °C 29.3in /  993.1hPa East 7.2mph /  11.6km/h 8.7mph /  14.0km/h 91% 0in /  0.0mm
19:06 30.6 °F /  -0.8 °C 26.6 °F /  -3.0 °C 29.3in /  993.1hPa East 7.4mph /  11.9km/h 8.9mph /  14.3km/h 91% 0in /  0.0mm
19:11 30.6 °F /  -0.8 °C 26.6 °F /  -3.0 °C 29.3in /  993.1hPa East 7.4mph /  11.9km/h 9.2mph /  14.8km/h 92% 0in /  0.0mm
19:16 30.6 °F /  -0.8 °C 26.6 °F /  -3.0 °C 29.3in /  993.1hPa ENE 5.6mph /  9.0km/h 9.2mph /  14.8km/h 92% 0in /  0.0mm
19:21 30.7 °F /  -0.7 °C 26.6 °F /  -3.0 °C 29.3in /  993.1hPa ESE 7.8mph /  12.6km/h 8.1mph /  13.0km/h 92% 0in /  0.0mm
19:26 30.7 °F /  -0.7 °C 26.6 °F /  -3.0 °C 29.3in /  993.1hPa ENE 7.8mph /  12.6km/h 7.8mph /  12.6km/h 92% 0in /  0.0mm
19:31 30.7 °F /  -0.7 °C 26.6 °F /  -3.0 °C 29.3in /  993.1hPa East 5.6mph /  9.0km/h 8.1mph /  13.0km/h 92% 0in /  0.0mm
19:36 30.9 °F /  -0.6 °C 26.6 °F /  -3.0 °C 29.3in /  993.1hPa East 6.5mph /  10.5km/h 8.1mph /  13.0km/h 92% 0in /  0.0mm
19:41 30.9 °F /  -0.6 °C 26.6 °F /  -3.0 °C 29.3in /  993.1hPa East 7.2mph /  11.6km/h 8.5mph /  13.7km/h 92% 0in /  0.0mm
19:46 30.9 °F /  -0.6 °C 26.6 °F /  -3.0 °C 29.3in /  993.1hPa East 7.6mph /  12.2km/h 10.3mph /  16.6km/h 92% 0in /  0.0mm
19:51 31.1 °F /  -0.5 °C 26.6 °F /  -3.0 °C 29.3in /  993.1hPa ESE 7.2mph /  11.6km/h 10.3mph /  16.6km/h 92% 0in /  0.0mm
19:56 31.1 °F /  -0.5 °C 26.6 °F /  -3.0 °C 29.3in /  993.1hPa East 6.5mph /  10.5km/h 8.7mph /  14.0km/h 92% 0in /  0.0mm
20:02 31.1 °F /  -0.5 °C 28.4 °F /  -2.0 °C 29.3in /  993.1hPa ENE 5.6mph /  9.0km/h 10.1mph /  16.3km/h 93% 0in /  0.0mm
20:07 31.1 °F /  -0.5 °C 28.4 °F /  -2.0 °C 29.3in /  993.1hPa East 5.8mph /  9.3km/h 10.1mph /  16.3km/h 93% 0in /  0.0mm
20:12 31.1 °F /  -0.5 °C 28.4 °F /  -2.0 °C 29.3in /  993.1hPa East 10.1mph /  16.3km/h 10.1mph /  16.3km/h 93% 0in /  0.0mm
20:17 31.3 °F /  -0.4 °C 28.4 °F /  -2.0 °C 29.3in /  993.1hPa East 5.6mph /  9.0km/h 10.1mph /  16.3km/h 93% 0in /  0.0mm
20:22 31.3 °F /  -0.4 °C 28.4 °F /  -2.0 °C 29.3in /  993.1hPa East 5.8mph /  9.3km/h 8.5mph /  13.7km/h 93% 0in /  0.0mm
20:27 31.5 °F /  -0.3 °C 28.4 °F /  -2.0 °C 29.3in /  993.1hPa East 5.4mph /  8.7km/h 8.5mph /  13.7km/h 93% 0in /  0.0mm
20:32 31.5 °F /  -0.3 °C 28.4 °F /  -2.0 °C 29.3in /  993.1hPa East 5.4mph /  8.7km/h 8.7mph /  14.0km/h 93% 0in /  0.0mm
20:37 31.5 °F /  -0.3 °C 28.4 °F /  -2.0 °C 29.3in /  993.1hPa East 7.4mph /  11.9km/h 8.7mph /  14.0km/h 93% 0in /  0.0mm
20:42 31.6 °F /  -0.2 °C 28.4 °F /  -2.0 °C 29.3in /  993.1hPa NE 6.3mph /  10.1km/h 8.7mph /  14.0km/h 93% 0in /  0.0mm
20:47 31.6 °F /  -0.2 °C 28.4 °F /  -2.0 °C 29.3in /  992.1hPa ENE 7.2mph /  11.6km/h 8.5mph /  13.7km/h 93% 0in /  0.0mm
20:52 31.6 °F /  -0.2 °C 28.4 °F /  -2.0 °C 29.3in /  992.1hPa East 5.6mph /  9.0km/h 8.5mph /  13.7km/h 93% 0in /  0.0mm
20:57 31.6 °F /  -0.2 °C 28.4 °F /  -2.0 °C 29.3in /  992.1hPa ENE 4.9mph /  7.9km/h 8.7mph /  14.0km/h 93% 0in /  0.0mm
21:02 31.6 °F /  -0.2 °C 28.4 °F /  -2.0 °C 29.3in /  993.1hPa East 6mph /  9.7km/h 8.7mph /  14.0km/h 93% 0in /  0.0mm
21:07 31.6 °F /  -0.2 °C 28.4 °F /  -2.0 °C 29.3in /  993.1hPa East 4.9mph /  7.9km/h 7.4mph /  11.9km/h 93% 0in /  0.0mm
21:12 31.6 °F /  -0.2 °C 28.4 °F /  -2.0 °C 29.3in /  993.1hPa East 5.6mph /  9.0km/h 8.1mph /  13.0km/h 93% 0in /  0.0mm
21:17 31.6 °F /  -0.2 °C 28.4 °F /  -2.0 °C 29.3in /  993.1hPa ESE 3.8mph /  6.1km/h 8.1mph /  13.0km/h 93% 0in /  0.0mm
21:23 31.8 °F /  -0.1 °C 28.4 °F /  -2.0 °C 29.3in /  993.1hPa NE 5.8mph /  9.3km/h 8.1mph /  13.0km/h 93% 0in /  0.0mm
21:28 31.8 °F /  -0.1 °C 28.4 °F /  -2.0 °C 29.3in /  993.1hPa East 6.5mph /  10.5km/h 8.5mph /  13.7km/h 93% 0in /  0.0mm
21:33 31.8 °F /  -0.1 °C 28.4 °F /  -2.0 °C 29.3in /  993.1hPa East 6.5mph /  10.5km/h 8.5mph /  13.7km/h 93% 0in /  0.0mm
21:38 31.8 °F /  -0.1 °C 28.4 °F /  -2.0 °C 29.3in /  993.1hPa East 7.6mph /  12.2km/h 7.6mph /  12.2km/h 93% 0in /  0.0mm
21:43 31.8 °F /  -0.1 °C 28.4 °F /  -2.0 °C 29.3in /  993.1hPa SE 6.3mph /  10.1km/h 8.7mph /  14.0km/h 93% 0in /  0.0mm
21:48 31.8 °F /  -0.1 °C 28.4 °F /  -2.0 °C 29.3in /  993.1hPa ENE 3.4mph /  5.5km/h 8.7mph /  14.0km/h 93% 0in /  0.0mm
21:53 31.8 °F /  -0.1 °C 28.4 °F /  -2.0 °C 29.3in /  993.1hPa ENE 4.3mph /  6.9km/h 8.5mph /  13.7km/h 93% 0in /  0.0mm
21:58 31.8 °F /  -0.1 °C 28.4 °F /  -2.0 °C 29.3in /  993.1hPa ENE 4.7mph /  7.6km/h 8.5mph /  13.7km/h 94% 0in /  0.0mm
22:03 31.8 °F /  -0.1 °C 28.4 °F /  -2.0 °C 29.3in /  993.1hPa East 3.8mph /  6.1km/h 6.3mph /  10.1km/h 94% 0in /  0.0mm
22:08 32 °F /  0.0 °C 28.4 °F /  -2.0 °C 29.3in /  993.1hPa East 3.8mph /  6.1km/h 6.3mph /  10.1km/h 94% 0in /  0.0mm
22:13 32 °F /  0.0 °C 28.4 °F /  -2.0 °C 29.3in /  993.1hPa Calm   6.3mph /  10.1km/h 94% 0in /  0.0mm
22:18 32 °F /  0.0 °C 28.4 °F /  -2.0 °C 29.3in /  993.1hPa ESE 4mph /  6.4km/h 6.3mph /  10.1km/h 93% 0in /  0.0mm
22:23 32.2 °F /  0.1 °C 30.2 °F /  -1.0 °C 29.3in /  993.1hPa East 6mph /  9.7km/h 7.4mph /  11.9km/h 94% 0in /  0.0mm
22:29 32.2 °F /  0.1 °C 30.2 °F /  -1.0 °C 29.3in /  993.1hPa East 3.4mph /  5.5km/h 7.4mph /  11.9km/h 94% 0in /  0.0mm
22:34 32.2 °F /  0.1 °C 30.2 °F /  -1.0 °C 29.3in /  993.1hPa East 3.8mph /  6.1km/h 7.2mph /  11.6km/h 94% 0in /  0.0mm
22:39 32.2 °F /  0.1 °C 30.2 °F /  -1.0 °C 29.3in /  993.1hPa East 3.6mph /  5.8km/h 7.2mph /  11.6km/h 94% 0in /  0.0mm
22:44 32.2 °F /  0.1 °C 30.2 °F /  -1.0 °C 29.3in /  993.1hPa East 3.1mph /  5.0km/h 5.6mph /  9.0km/h 94% 0in /  0.0mm
22:49 32.2 °F /  0.1 °C 30.2 °F /  -1.0 °C 29.3in /  993.1hPa Calm   6.3mph /  10.1km/h 94% 0in /  0.0mm
22:54 32.2 °F /  0.1 °C 30.2 °F /  -1.0 °C 29.3in /  993.1hPa ESE 1.6mph /  2.6km/h 6.3mph /  10.1km/h 94% 0in /  0.0mm
22:59 32.2 °F /  0.1 °C 30.2 °F /  -1.0 °C 29.4in /  994.1hPa Calm   5.8mph /  9.3km/h 93% 0in /  0.0mm
23:04 32.2 °F /  0.1 °C 30.2 °F /  -1.0 °C 29.4in /  994.1hPa Calm   5.4mph /  8.7km/h 93% 0in /  0.0mm
23:09 32.2 °F /  0.1 °C 30.2 °F /  -1.0 °C 29.4in /  994.1hPa East 3.1mph /  5.0km/h 5.4mph /  8.7km/h 93% 0in /  0.0mm
23:14 32.2 °F /  0.1 °C 30.2 °F /  -1.0 °C 29.3in /  993.1hPa Calm   3.1mph /  5.0km/h 93% 0in /  0.0mm
23:19 32 °F /  0.0 °C 28.4 °F /  -2.0 °C 29.3in /  993.1hPa Calm   2.5mph /  4.0km/h 93% 0in /  0.0mm
23:24 32 °F /  0.0 °C 28.4 °F /  -2.0 °C 29.3in /  993.1hPa Calm     93% 0in /  0.0mm
23:29 32 °F /  0.0 °C 28.4 °F /  -2.0 °C 29.3in /  993.1hPa Calm     92% 0in /  0.0mm
23:34 32 °F /  0.0 °C 28.4 °F /  -2.0 °C 29.3in /  993.1hPa Calm     92% 0in /  0.0mm
23:39 31.8 °F /  -0.1 °C 28.4 °F /  -2.0 °C 29.3in /  993.1hPa Calm     92% 0in /  0.0mm
23:44 31.8 °F /  -0.1 °C 28.4 °F /  -2.0 °C 29.3in /  993.1hPa Calm     92% 0in /  0.0mm
23:49 31.6 °F /  -0.2 °C 28.4 °F /  -2.0 °C 29.3in /  993.1hPa Calm     92% 0in /  0.0mm
23:54 31.6 °F /  -0.2 °C 28.4 °F /  -2.0 °C 29.3in /  993.1hPa Calm     92% 0in /  0.0mm
23:59 31.5 °F /  -0.3 °C 28.4 °F /  -2.0 °C 29.3in /  993.1hPa Calm     91% 0in /  0.0mm
Données Historique de Météo Turbie

Mise a jour : 18/06/2018 00:15:12
Généré par Cumulus 1.9.4 (1099)